Weather at Brenteson Incorporated Wholesale Airport [CLOSED]

Public forecast

Using degrees Fahrenheit for public forecast. Weather courtesy of forecast.io.

Closest aviation weather report (METAR) to Brenteson Incorporated Wholesale Airport

Closest report is Phoenix Sky Harbor International Airport, 6.8 nm (12.6 km) NNW.

2024/07/22 19:51 (retrieved 41 minutes ago)

KPHX 221951Z 02004KT 10SM FEW080 FEW250 40/14 A2981 RMK AO2 SLP071 T04000144

Closest aviation forecast (TAF) to Brenteson Incorporated Wholesale Airport

Closest forecast is Phoenix Sky Harbor International Airport, 6.8 nm (12.6 km) NNW.

2024/07/22 18:39 (retrieved 2 hours ago)

TAF KPHX 221737Z 2218/2324 12008KT P6SM FEW150 FEW250 FM222100 17006KT P6SM FEW150 FEW250 FM222300 26007KT P6SM FEW150 SCT250 FM230300 35014G22KT P6SM SCT100 BKN150 FM230500 23006KT P6SM SCT120 BKN200 FM230700 12007KT P6SM FEW120 SCT200 FM232000 25007KT P6SM FEW120 FEW250